createdAt,value
2018-07-31T00:00:30.958Z,0.30
2018-07-31T00:02:59.874Z,0.37
2018-07-31T00:05:28.784Z,0.23
2018-07-31T00:07:57.710Z,0.23
2018-07-31T00:10:26.669Z,0.30
2018-07-31T00:12:55.588Z,0.23
2018-07-31T00:15:24.545Z,0.30
2018-07-31T00:17:53.596Z,0.30
2018-07-31T00:20:22.533Z,0.30
2018-07-31T00:22:51.497Z,0.20
2018-07-31T00:25:20.411Z,0.43
2018-07-31T00:27:49.356Z,0.13
2018-07-31T00:30:18.296Z,0.30
2018-07-31T00:32:47.225Z,0.27
2018-07-31T00:35:16.195Z,0.20
2018-07-31T00:37:45.133Z,0.30
2018-07-31T00:40:14.060Z,0.30
2018-07-31T00:42:42.945Z,0.30
2018-07-31T00:45:11.852Z,0.40
2018-07-31T00:47:40.810Z,0.23
2018-07-31T00:50:09.723Z,0.20
2018-07-31T00:52:38.641Z,0.20
2018-07-31T00:55:07.874Z,0.20
2018-07-31T00:57:36.787Z,0.30
2018-07-31T01:00:05.949Z,0.50
2018-07-31T01:02:34.900Z,0.20
2018-07-31T01:05:03.928Z,0.30
2018-07-31T01:07:32.858Z,0.40
2018-07-31T01:10:01.767Z,0.33
2018-07-31T01:12:30.794Z,0.30
2018-07-31T01:14:59.805Z,0.20
2018-07-31T01:17:28.733Z,0.30
2018-07-31T01:19:57.669Z,0.17
2018-07-31T01:22:26.600Z,0.23
2018-07-31T01:24:55.588Z,0.30
2018-07-31T01:27:24.550Z,0.40
2018-07-31T01:29:53.471Z,0.23
2018-07-31T01:32:22.430Z,0.40
2018-07-31T01:34:51.350Z,0.30
2018-07-31T01:37:20.308Z,0.20
2018-07-31T01:39:49.239Z,0.20
2018-07-31T01:42:18.185Z,0.30
2018-07-31T01:44:47.203Z,0.30
2018-07-31T01:47:16.173Z,0.30
2018-07-31T01:49:45.130Z,0.30
2018-07-31T01:52:14.114Z,0.30
2018-07-31T01:54:43.536Z,0.20
2018-07-31T01:57:12.608Z,0.30
2018-07-31T01:59:43.563Z,0.30
2018-07-31T02:02:12.477Z,0.20
2018-07-31T02:04:41.429Z,0.20
2018-07-31T02:07:10.327Z,0.27
2018-07-31T02:09:39.261Z,0.20
2018-07-31T02:12:08.195Z,0.30
2018-07-31T02:14:37.115Z,0.20
2018-07-31T02:17:06.322Z,0.30
2018-07-31T02:19:36.374Z,0.30
2018-07-31T02:22:05.434Z,0.40
2018-07-31T02:24:34.388Z,0.20
2018-07-31T02:27:03.312Z,0.30
2018-07-31T02:29:37.624Z,0.10
2018-07-31T02:32:06.552Z,0.27
2018-07-31T02:34:35.490Z,0.30
2018-07-31T02:37:04.415Z,0.33
2018-07-31T02:39:33.329Z,0.20
2018-07-31T02:42:02.281Z,0.30
2018-07-31T02:44:31.252Z,0.30
2018-07-31T02:47:00.300Z,0.30
2018-07-31T02:49:29.124Z,0.30
2018-07-31T02:51:58.064Z,0.40
2018-07-31T02:54:26.996Z,0.30
2018-07-31T02:56:55.962Z,0.20
2018-07-31T02:59:24.960Z,0.20
2018-07-31T03:01:53.937Z,0.27
2018-07-31T03:04:22.915Z,0.20
2018-07-31T03:06:51.944Z,0.20
2018-07-31T03:09:20.882Z,0.20
2018-07-31T03:11:49.804Z,0.30
2018-07-31T03:14:18.727Z,0.20
2018-07-31T03:16:47.664Z,0.30
2018-07-31T03:19:16.620Z,0.30
2018-07-31T03:21:45.567Z,0.30
2018-07-31T03:24:14.482Z,0.27
2018-07-31T03:26:43.604Z,0.30
2018-07-31T03:29:12.570Z,0.30
2018-07-31T03:31:41.485Z,0.30
2018-07-31T03:34:10.480Z,0.20
2018-07-31T03:36:39.420Z,0.30
2018-07-31T03:39:09.005Z,0.30
2018-07-31T03:41:38.018Z,0.40
2018-07-31T03:44:06.999Z,0.40
2018-07-31T03:46:35.936Z,0.30
2018-07-31T03:49:04.847Z,0.30
2018-07-31T03:51:33.784Z,0.30
2018-07-31T03:54:02.706Z,0.20
2018-07-31T03:56:31.651Z,0.30
2018-07-31T03:59:00.690Z,0.40
2018-07-31T04:01:29.677Z,0.40
2018-07-31T04:03:58.635Z,0.33
2018-07-31T04:06:27.552Z,0.20
2018-07-31T04:08:56.474Z,0.40
2018-07-31T04:11:25.432Z,0.30
2018-07-31T04:13:54.349Z,0.30
2018-07-31T04:16:23.291Z,0.30
2018-07-31T04:18:52.224Z,0.30
2018-07-31T04:21:21.177Z,0.40
2018-07-31T04:23:50.179Z,0.30
2018-07-31T04:26:19.088Z,0.33
2018-07-31T04:28:49.082Z,0.30
2018-07-31T04:31:18.130Z,0.33
2018-07-31T04:33:47.139Z,0.20
2018-07-31T04:36:16.195Z,0.37
2018-07-31T04:38:45.481Z,0.30
2018-07-31T04:41:14.544Z,0.40
2018-07-31T04:43:43.589Z,0.40
2018-07-31T04:46:12.508Z,0.30
2018-07-31T04:48:41.497Z,0.30
2018-07-31T04:51:10.427Z,0.40
2018-07-31T04:53:39.340Z,0.30
2018-07-31T04:56:08.233Z,0.30
2018-07-31T04:58:37.144Z,0.23
2018-07-31T05:01:06.300Z,0.10
2018-07-31T05:03:35.209Z,0.23
2018-07-31T05:06:04.112Z,0.30
2018-07-31T05:08:33.025Z,0.23
2018-07-31T05:11:02.158Z,0.30
2018-07-31T05:13:31.028Z,0.30
2018-07-31T05:16:00.007Z,0.20
2018-07-31T05:18:28.962Z,0.40
2018-07-31T05:20:57.897Z,0.30
2018-07-31T05:23:26.825Z,0.30
2018-07-31T05:25:55.759Z,0.20
2018-07-31T05:28:24.679Z,0.20
2018-07-31T05:30:53.680Z,0.30
2018-07-31T05:33:22.676Z,0.40
2018-07-31T05:35:51.680Z,0.30
2018-07-31T05:38:20.681Z,0.33
2018-07-31T05:40:49.940Z,0.30
2018-07-31T05:43:18.861Z,0.20
2018-07-31T05:45:47.832Z,0.30
2018-07-31T05:48:16.822Z,0.27
2018-07-31T05:50:45.948Z,0.50
2018-07-31T05:53:14.974Z,0.40
2018-07-31T05:55:43.965Z,0.30
2018-07-31T05:58:12.909Z,0.20
2018-07-31T06:00:41.844Z,0.30
2018-07-31T06:03:10.806Z,0.40
2018-07-31T06:05:39.733Z,0.30
2018-07-31T06:08:09.019Z,0.30
2018-07-31T06:10:37.961Z,0.33
2018-07-31T06:13:06.892Z,0.47
2018-07-31T06:15:35.860Z,0.40
2018-07-31T06:18:04.820Z,0.30
2018-07-31T06:20:33.727Z,0.42
2018-07-31T06:23:02.708Z,0.50
2018-07-31T06:25:31.771Z,0.47
2018-07-31T06:28:00.691Z,0.50
2018-07-31T06:30:29.598Z,0.50
2018-07-31T06:32:58.756Z,0.40
2018-07-31T06:35:27.646Z,0.47
2018-07-31T06:37:56.705Z,0.60
2018-07-31T06:40:25.665Z,0.47
2018-07-31T06:42:54.690Z,0.60
2018-07-31T06:45:23.700Z,0.53
2018-07-31T06:47:52.665Z,0.50
2018-07-31T06:50:21.591Z,0.60
2018-07-31T06:52:50.567Z,0.60
2018-07-31T06:55:19.478Z,0.60
2018-07-31T06:57:48.512Z,0.57
2018-07-31T07:00:17.579Z,0.60
2018-07-31T07:02:46.580Z,0.60
2018-07-31T07:05:15.558Z,0.70
2018-07-31T07:07:44.583Z,0.50
2018-07-31T07:10:13.564Z,0.57
2018-07-31T07:12:42.472Z,0.53
2018-07-31T07:15:11.435Z,0.60
2018-07-31T07:17:40.799Z,0.60
2018-07-31T07:20:09.996Z,0.60
2018-07-31T07:22:40.680Z,0.50
2018-07-31T07:25:09.568Z,0.50
2018-07-31T07:27:38.484Z,0.60
2018-07-31T07:30:07.487Z,0.50
2018-07-31T07:32:36.419Z,0.60
2018-07-31T07:35:05.376Z,0.60
2018-07-31T07:37:34.316Z,0.70
2018-07-31T07:40:03.258Z,0.60
2018-07-31T07:42:32.179Z,0.70
2018-07-31T07:45:01.480Z,0.70
2018-07-31T07:47:30.727Z,0.60
2018-07-31T07:50:00.103Z,0.50
2018-07-31T07:52:29.385Z,0.70
2018-07-31T07:54:58.707Z,0.50
2018-07-31T07:57:27.621Z,0.60
2018-07-31T07:59:56.590Z,0.60
2018-07-31T08:02:25.486Z,0.70
2018-07-31T08:04:54.404Z,0.60
2018-07-31T08:07:23.316Z,0.60
2018-07-31T08:09:52.429Z,0.60
2018-07-31T08:12:22.320Z,0.65
2018-07-31T08:14:51.294Z,0.68
2018-07-31T08:17:20.185Z,0.68
2018-07-31T08:19:49.178Z,0.70
2018-07-31T08:22:18.096Z,0.70
2018-07-31T08:24:47.027Z,0.80
2018-07-31T08:27:15.948Z,0.80
2018-07-31T08:29:44.865Z,0.80
2018-07-31T08:32:13.871Z,0.80
2018-07-31T08:34:42.827Z,0.80
2018-07-31T08:37:11.796Z,0.80
2018-07-31T08:39:40.714Z,0.80
2018-07-31T08:42:09.631Z,0.80
2018-07-31T08:44:38.631Z,0.70
2018-07-31T08:47:07.550Z,0.65
2018-07-31T08:49:36.493Z,0.80
2018-07-31T08:52:05.444Z,0.90
2018-07-31T08:54:34.388Z,0.80
2018-07-31T08:57:03.322Z,0.80
2018-07-31T08:59:32.251Z,0.70
2018-07-31T09:02:01.224Z,0.80
2018-07-31T09:04:30.253Z,0.80
2018-07-31T09:06:59.244Z,0.80
2018-07-31T09:09:28.150Z,0.90
2018-07-31T09:11:57.079Z,0.85
2018-07-31T09:14:26.021Z,0.90
2018-07-31T09:16:54.945Z,0.93
2018-07-31T09:19:23.867Z,0.85
2018-07-31T09:21:52.775Z,0.80
2018-07-31T09:24:21.701Z,0.80
2018-07-31T09:26:50.583Z,0.80
2018-07-31T09:29:19.481Z,0.80
2018-07-31T09:31:48.432Z,0.68
2018-07-31T09:34:17.335Z,0.78
2018-07-31T09:36:46.278Z,0.80
2018-07-31T09:39:15.182Z,0.80
2018-07-31T09:41:44.088Z,0.82
2018-07-31T09:44:13.044Z,0.70
2018-07-31T09:46:41.991Z,0.90
2018-07-31T09:49:10.892Z,0.90
2018-07-31T09:51:39.803Z,0.70
2018-07-31T09:54:08.747Z,0.70
2018-07-31T09:56:37.663Z,0.80
2018-07-31T09:59:06.624Z,0.80
2018-07-31T10:01:35.492Z,0.80
2018-07-31T10:04:04.406Z,0.80
2018-07-31T10:06:33.328Z,0.72
2018-07-31T10:09:02.367Z,0.72
2018-07-31T10:11:31.725Z,1.00
2018-07-31T10:14:00.756Z,1.10
2018-07-31T10:16:29.707Z,0.80
2018-07-31T10:18:58.762Z,0.80
2018-07-31T10:21:27.800Z,0.93
2018-07-31T10:23:56.936Z,1.02
2018-07-31T10:26:26.107Z,1.00
2018-07-31T10:28:55.318Z,1.05
2018-07-31T10:31:24.661Z,1.10
2018-07-31T10:33:53.644Z,1.07
2018-07-31T10:36:22.636Z,1.10
2018-07-31T10:38:51.560Z,0.90
2018-07-31T10:41:20.455Z,0.90
2018-07-31T10:43:49.404Z,1.00
2018-07-31T10:46:18.283Z,1.10
2018-07-31T10:48:47.327Z,0.90
2018-07-31T10:51:18.833Z,0.98
2018-07-31T10:53:47.744Z,1.00
2018-07-31T10:56:16.848Z,1.02
2018-07-31T10:58:45.830Z,0.88
2018-07-31T11:01:14.918Z,0.80
2018-07-31T11:03:43.908Z,1.10
2018-07-31T11:06:12.931Z,1.05
2018-07-31T11:08:41.939Z,1.00
2018-07-31T11:11:11.179Z,0.98
2018-07-31T11:13:40.064Z,0.90
2018-07-31T11:16:09.064Z,1.00
2018-07-31T11:18:37.971Z,0.90
2018-07-31T11:21:06.977Z,1.00
2018-07-31T11:23:35.795Z,0.90
2018-07-31T11:26:04.715Z,1.00
2018-07-31T11:28:33.622Z,1.00
2018-07-31T11:31:02.524Z,1.00
2018-07-31T11:33:31.444Z,0.95
2018-07-31T11:36:00.402Z,0.98
2018-07-31T11:38:29.373Z,1.00
2018-07-31T11:40:58.533Z,0.85
2018-07-31T11:43:27.483Z,1.00
2018-07-31T11:45:56.386Z,0.80
2018-07-31T11:48:25.341Z,0.90
2018-07-31T11:50:54.279Z,0.80
2018-07-31T11:53:23.196Z,0.88
2018-07-31T11:55:52.180Z,0.78
2018-07-31T11:58:21.092Z,0.90
2018-07-31T12:00:50.930Z,0.85
2018-07-31T12:03:19.925Z,0.80
2018-07-31T12:05:48.834Z,0.80
2018-07-31T12:08:17.699Z,0.85
2018-07-31T12:10:46.728Z,0.90
2018-07-31T12:13:15.612Z,1.00
2018-07-31T12:15:44.556Z,1.10
2018-07-31T12:18:13.468Z,1.00
2018-07-31T12:20:42.394Z,0.95
2018-07-31T12:23:11.303Z,0.80
2018-07-31T12:25:40.212Z,0.90
2018-07-31T12:28:09.154Z,0.90
2018-07-31T12:30:38.126Z,0.90
2018-07-31T12:33:07.645Z,1.00
2018-07-31T12:35:36.523Z,0.90
2018-07-31T12:38:05.622Z,0.82
2018-07-31T12:40:34.545Z,0.90
2018-07-31T12:43:03.822Z,1.07
2018-07-31T12:45:32.720Z,1.00
2018-07-31T12:48:01.736Z,1.00
2018-07-31T12:50:30.685Z,0.93
2018-07-31T12:52:59.594Z,1.10
2018-07-31T12:55:28.511Z,1.22
2018-07-31T12:57:57.455Z,0.98
2018-07-31T13:00:26.391Z,1.10
2018-07-31T13:02:55.328Z,1.20
2018-07-31T13:05:24.267Z,1.10
2018-07-31T13:07:53.201Z,1.05
2018-07-31T13:10:22.211Z,1.00
2018-07-31T13:12:51.154Z,1.10
2018-07-31T13:15:20.105Z,1.15
2018-07-31T13:17:49.052Z,1.10
2018-07-31T13:20:17.958Z,1.10
2018-07-31T13:22:46.940Z,0.93
2018-07-31T13:25:15.847Z,0.90
2018-07-31T13:27:44.890Z,0.90
2018-07-31T13:30:13.871Z,1.00
2018-07-31T13:32:42.789Z,1.00
2018-07-31T13:35:11.760Z,0.90
2018-07-31T13:37:41.182Z,0.90
2018-07-31T13:40:10.088Z,0.90
2018-07-31T13:42:39.205Z,0.90
2018-07-31T13:45:08.076Z,0.93
2018-07-31T13:47:37.089Z,1.00
2018-07-31T13:50:06.013Z,1.02
2018-07-31T13:52:34.932Z,0.90
2018-07-31T13:55:03.844Z,1.00
2018-07-31T13:57:32.732Z,0.90
2018-07-31T14:00:01.656Z,0.98
2018-07-31T14:02:30.795Z,1.10
2018-07-31T14:04:59.725Z,1.00
2018-07-31T14:07:28.670Z,1.00
2018-07-31T14:09:57.982Z,0.90
2018-07-31T14:12:26.955Z,1.12
2018-07-31T14:14:55.840Z,0.93
2018-07-31T14:17:24.821Z,1.07
2018-07-31T14:19:53.748Z,1.10
2018-07-31T14:22:22.653Z,1.10
2018-07-31T14:24:51.608Z,0.98
2018-07-31T14:27:20.552Z,0.90
2018-07-31T14:29:49.486Z,0.90
2018-07-31T14:32:18.426Z,1.00
2018-07-31T14:34:47.345Z,0.90
2018-07-31T14:37:16.256Z,0.90
2018-07-31T20:05:09.715Z,0.40
2018-07-31T20:07:39.316Z,0.30
2018-07-31T20:10:08.302Z,0.40
2018-07-31T20:12:37.314Z,0.40
2018-07-31T20:15:06.477Z,0.40
2018-07-31T20:17:35.351Z,0.30
2018-07-31T20:20:04.338Z,0.50
2018-07-31T20:22:33.344Z,0.50
2018-07-31T20:25:02.272Z,0.40
2018-07-31T20:27:31.192Z,0.40
2018-07-31T20:30:00.136Z,0.40
2018-07-31T20:32:29.123Z,0.53
2018-07-31T20:34:58.156Z,0.40
2018-07-31T20:37:27.137Z,0.50
2018-07-31T20:39:56.187Z,0.40
2018-07-31T20:42:25.166Z,0.40
2018-07-31T20:44:54.103Z,0.50
2018-07-31T20:47:23.005Z,0.47
2018-07-31T20:49:51.932Z,0.50
2018-07-31T20:52:20.911Z,0.40
2018-07-31T20:54:49.990Z,0.40
2018-07-31T20:57:18.926Z,0.40
2018-07-31T20:59:48.118Z,0.30
2018-07-31T21:02:16.976Z,0.50
2018-07-31T21:04:46.003Z,0.40
2018-07-31T21:07:14.991Z,0.40
2018-07-31T21:09:43.939Z,0.40
2018-07-31T21:12:12.868Z,0.53
2018-07-31T21:14:41.821Z,0.30
2018-07-31T21:17:10.736Z,0.40
2018-07-31T21:19:39.664Z,0.37
2018-07-31T21:22:08.577Z,0.50
2018-07-31T21:24:37.479Z,0.50
2018-07-31T21:27:06.406Z,0.43
2018-07-31T21:29:35.500Z,0.30
2018-07-31T21:32:04.471Z,0.40
2018-07-31T21:34:33.604Z,0.40
2018-07-31T21:37:02.540Z,0.40
2018-07-31T21:39:31.508Z,0.30
2018-07-31T21:42:00.472Z,0.40
2018-07-31T21:44:29.456Z,0.40
2018-07-31T21:46:58.432Z,0.40
2018-07-31T21:49:28.147Z,0.40
2018-07-31T21:51:57.081Z,0.40
2018-07-31T21:54:26.002Z,0.40
2018-07-31T21:56:54.964Z,0.30
2018-07-31T21:59:24.011Z,0.30
2018-07-31T22:01:52.987Z,0.40
2018-07-31T22:04:22.157Z,0.30
2018-07-31T22:06:51.077Z,0.40
2018-07-31T22:09:24.223Z,0.50
2018-07-31T22:11:53.213Z,0.43
2018-07-31T22:14:22.148Z,0.40
2018-07-31T22:16:51.064Z,0.40
2018-07-31T22:19:20.011Z,0.30
2018-07-31T22:21:49.058Z,0.40
2018-07-31T22:24:17.983Z,0.30
2018-07-31T22:26:46.928Z,0.30
2018-07-31T22:29:15.862Z,0.40
2018-07-31T22:31:44.806Z,0.30
2018-07-31T22:34:13.846Z,0.30
2018-07-31T22:36:42.808Z,0.30
2018-07-31T22:39:12.435Z,0.30
2018-07-31T22:41:41.649Z,0.20
2018-07-31T22:44:10.647Z,0.30
2018-07-31T22:46:39.692Z,0.40
2018-07-31T22:49:08.685Z,0.30
2018-07-31T22:51:37.602Z,0.30
2018-07-31T22:54:06.539Z,0.20
2018-07-31T22:56:35.464Z,0.20
2018-07-31T22:59:04.430Z,0.30
2018-07-31T23:01:33.975Z,0.30
2018-07-31T23:04:02.904Z,0.20
2018-07-31T23:06:31.822Z,0.30
2018-07-31T23:09:00.775Z,0.33
2018-07-31T23:11:29.699Z,0.40
2018-07-31T23:13:58.686Z,0.30
2018-07-31T23:16:27.568Z,0.20
2018-07-31T23:18:56.564Z,0.30
2018-07-31T23:21:25.512Z,0.40
2018-07-31T23:23:54.434Z,0.40
2018-07-31T23:26:23.368Z,0.30
2018-07-31T23:28:52.318Z,0.20
2018-07-31T23:31:21.410Z,0.37
2018-07-31T23:33:50.354Z,0.30
2018-07-31T23:36:19.362Z,0.20
2018-07-31T23:38:48.317Z,0.30
2018-07-31T23:41:17.278Z,0.33
2018-07-31T23:43:46.252Z,0.30
2018-07-31T23:46:15.228Z,0.30
2018-07-31T23:48:44.628Z,0.27
2018-07-31T23:51:13.624Z,0.30
2018-07-31T23:53:42.579Z,0.30
2018-07-31T23:56:11.520Z,0.40
2018-07-31T23:58:40.465Z,0.37
